Airfield :
LOGIN :

Register | Disclaimer

   EN    FR    IT 

 










Legend :    VFR   Marginal VFR   IFR   Intensive IFR   Very Intensive IFR
Visi :
Ceiling :
>= 8 km
>= 3000ft
5 to 8 km
1000 to 3000 ft
1500m to 5 km
500 to 1000 ft
800 to 1500m
200 to 500 ft
< 800m
< 200 ft
Symbols :   Thunderstorms  Fog  Heavy snow  Heavy precipitations  Wind > 20 kt
SIGMETs :     Misc.  Thunderstorms  Icing  Turbulence  Mountain Waves  Volcanic Ashes







- Airport Elevation : 1768 ft


LEHC - Huesca Pirineos

CURRENT METAR :
  • 201500Z 23003KT 170V330 CAVOK 29/08 Q1021

EXPIRED METARs :
  • 201430Z 24005KT 170V310 CAVOK 28/09 Q1022
  • 201400Z 25004KT 170V320 CAVOK 28/10 Q1022
  • 201330Z 26006KT 160V310 CAVOK 27/10 Q1022
  • 201300Z 26004KT CAVOK 26/11 Q1022
  • 201230Z 22002KT CAVOK 26/12 Q1023

TAF TAF LEHC
Valid from the 20 at 09:00 until the 21 at 09:00 UTC


200800Z 2009/2109 28008KT 9999 FEW045 TX32/2015Z TN18/2105Z
BECMG 2021/2023 11008KT
No reported NOTAMs for that airfield.



MET'MAP, your aeronautical weather chart ! - Copyright ORBIFLY December 2007 - Disclaimer

ORBIFLY MET'MAP TEAM :

Programming & Development : Alexandra Zaïnal
Concept & Development : Baudouin d'Aumeries
Co-Development & Prog : Marc-Olivier Méhu
Technical & hardware support : Manuel Goepfert

Contact : metmap@orbifly.com




SOURCES & CREDITS :

   NOAA